createdAt,value
2018-02-14T00:00:58.081Z,35.25
2018-02-14T00:03:24.489Z,23.80
2018-02-14T00:05:50.922Z,27.85
2018-02-14T00:08:17.302Z,31.45
2018-02-14T00:10:43.745Z,35.15
2018-02-14T00:13:10.149Z,29.37
2018-02-14T00:15:36.554Z,30.45
2018-02-14T00:18:02.964Z,30.05
2018-02-14T00:20:31.298Z,31.08
2018-02-14T00:22:58.114Z,29.00
2018-02-14T00:25:24.533Z,28.75
2018-02-14T00:27:50.957Z,27.98
2018-02-14T00:30:18.100Z,27.80
2018-02-14T00:32:45.305Z,30.50
2018-02-14T00:35:11.721Z,32.33
2018-02-14T00:37:38.177Z,34.63
2018-02-14T00:40:04.604Z,32.97
2018-02-14T00:42:31.008Z,36.88
2018-02-14T00:44:57.410Z,32.35
2018-02-14T00:47:23.790Z,35.75
2018-02-14T00:49:50.198Z,30.33
2018-02-14T00:52:17.319Z,29.05
2018-02-14T00:54:43.718Z,33.70
2018-02-14T00:57:10.090Z,33.35
2018-02-14T00:59:36.505Z,32.30
2018-02-14T01:02:02.914Z,26.67
2018-02-14T01:04:29.290Z,22.20
2018-02-14T01:06:55.687Z,30.33
2018-02-14T01:09:22.052Z,26.77
2018-02-14T01:11:48.480Z,30.80
2018-02-14T01:14:14.903Z,30.55
2018-02-14T01:16:41.303Z,27.60
2018-02-14T01:19:13.626Z,28.90
2018-02-14T01:21:45.909Z,35.55
2018-02-14T01:24:12.300Z,32.38
2018-02-14T01:26:38.704Z,31.83
2018-02-14T01:29:05.132Z,31.42
2018-02-14T01:31:32.297Z,30.95
2018-02-14T01:33:58.669Z,34.83
2018-02-14T01:36:25.088Z,26.83
2018-02-14T01:38:51.458Z,30.67
2018-02-14T01:41:17.939Z,33.08
2018-02-14T01:43:44.334Z,26.15
2018-02-14T01:46:10.751Z,37.95
2018-02-14T01:48:37.139Z,38.33
2018-02-14T01:51:03.582Z,32.05
2018-02-14T01:53:29.985Z,35.33
2018-02-14T01:55:57.109Z,32.95
2018-02-14T01:58:23.511Z,36.97
2018-02-14T02:00:49.892Z,33.45
2018-02-14T02:03:16.321Z,33.40
2018-02-14T02:05:42.710Z,29.58
2018-02-14T02:08:09.113Z,30.83
2018-02-14T02:10:36.249Z,34.67
2018-02-14T02:13:02.643Z,33.58
2018-02-14T02:15:29.077Z,27.85
2018-02-14T02:17:55.503Z,36.05
2018-02-14T02:20:21.928Z,30.30
2018-02-14T02:22:48.318Z,41.97
2018-02-14T02:25:14.737Z,33.95
2018-02-14T02:27:41.155Z,36.53
2018-02-14T02:30:07.554Z,34.75
2018-02-14T02:32:33.967Z,37.65
2018-02-14T02:35:01.086Z,34.45
2018-02-14T02:37:27.543Z,27.73
2018-02-14T02:40:06.100Z,33.40
2018-02-14T02:42:32.523Z,32.05
2018-02-14T02:44:58.933Z,33.15
2018-02-14T02:47:26.082Z,32.08
2018-02-14T02:49:52.474Z,30.48
2018-02-14T02:52:18.903Z,29.05
2018-02-14T02:54:45.379Z,33.92
2018-02-14T02:57:12.668Z,32.38
2018-02-14T02:59:39.096Z,27.02
2018-02-14T03:14:18.953Z,30.05
2018-02-14T03:16:45.361Z,38.50
2018-02-14T03:19:12.497Z,39.15
2018-02-14T03:21:38.901Z,40.53
2018-02-14T03:24:05.297Z,40.60
2018-02-14T03:26:31.708Z,38.97
2018-02-14T03:28:58.865Z,34.22
2018-02-14T03:33:58.970Z,27.45
2018-02-14T03:36:25.390Z,32.30
2018-02-14T03:38:51.773Z,30.08
2018-02-14T03:41:18.955Z,26.45
2018-02-14T03:43:45.411Z,33.85
2018-02-14T03:46:11.858Z,28.85
2018-02-14T03:48:38.253Z,34.08
2018-02-14T03:51:04.690Z,36.50
2018-02-14T03:53:31.113Z,33.58
2018-02-14T03:55:57.514Z,33.88
2018-02-14T03:58:23.940Z,42.10
2018-02-14T04:00:50.462Z,40.75
2018-02-14T04:03:16.931Z,38.60
2018-02-14T04:05:44.066Z,31.00
2018-02-14T04:08:10.514Z,27.58
2018-02-14T04:10:37.677Z,32.65
2018-02-14T04:13:04.873Z,39.55
2018-02-14T04:15:31.338Z,29.58
2018-02-14T04:20:24.059Z,29.27
2018-02-14T04:22:50.441Z,37.95
2018-02-14T04:25:16.894Z,35.42
2018-02-14T04:27:44.031Z,31.77
2018-02-14T04:30:10.474Z,34.42
2018-02-14T04:32:37.653Z,37.45
2018-02-14T04:35:04.129Z,42.13
2018-02-14T04:37:30.557Z,39.27
2018-02-14T04:39:56.950Z,38.58
2018-02-14T04:42:23.438Z,38.97
2018-02-14T04:44:49.857Z,43.78
2018-02-14T04:47:16.265Z,51.08
2018-02-14T04:49:42.660Z,48.40
2018-02-14T04:52:09.094Z,39.20
2018-02-14T04:54:35.480Z,33.45
2018-02-14T04:57:02.138Z,34.70
2018-02-14T04:59:28.611Z,29.60
2018-02-14T08:51:19.391Z,29.25
2018-02-14T08:53:46.575Z,29.75
2018-02-14T08:56:13.030Z,32.40
2018-02-14T08:58:39.449Z,36.78
2018-02-14T09:01:05.865Z,29.30
2018-02-14T09:03:33.032Z,29.85
2018-02-14T09:05:59.422Z,26.40
2018-02-14T09:08:25.825Z,26.27
2018-02-14T09:10:52.214Z,25.00
2018-02-14T09:13:19.368Z,21.70
2018-02-14T09:15:46.563Z,21.25
2018-02-14T09:18:12.942Z,22.52
2018-02-14T09:20:40.123Z,23.33
2018-02-14T09:23:06.549Z,23.62
2018-02-14T09:25:33.009Z,22.62
2018-02-14T09:27:59.442Z,26.77
2018-02-14T09:30:25.855Z,24.60
2018-02-14T09:32:52.288Z,23.27
2018-02-14T09:35:18.732Z,25.67
2018-02-14T09:37:52.161Z,20.67
2018-02-14T09:40:18.565Z,25.90
2018-02-14T09:42:44.962Z,21.42
2018-02-14T09:45:11.365Z,23.20
2018-02-14T09:47:37.761Z,18.87
2018-02-14T09:50:04.176Z,23.00
2018-02-14T09:52:31.499Z,19.08
2018-02-14T09:54:58.688Z,20.40
2018-02-14T09:57:25.870Z,29.05
2018-02-14T09:59:52.356Z,24.65
2018-02-14T10:02:19.573Z,20.67
2018-02-14T10:04:46.057Z,21.42
2018-02-14T10:07:13.218Z,15.95
2018-02-14T10:09:40.368Z,20.25
2018-02-14T10:12:07.505Z,16.75
2018-02-14T10:14:34.629Z,16.95
2018-02-14T10:17:01.042Z,24.85
2018-02-14T10:19:27.604Z,19.27
2018-02-14T10:21:54.028Z,18.77
2018-02-14T10:24:20.434Z,17.05
2018-02-14T10:26:46.890Z,17.35
2018-02-14T10:29:13.357Z,14.25
2018-02-14T10:31:40.578Z,21.35
2018-02-14T10:34:06.962Z,16.50
2018-02-14T10:36:34.111Z,16.37
2018-02-14T10:39:01.281Z,16.45
2018-02-14T10:41:27.686Z,19.23
2018-02-14T10:43:54.870Z,16.87
2018-02-14T10:46:21.319Z,18.35
2018-02-14T10:48:47.709Z,22.40
2018-02-14T10:51:14.857Z,18.42
2018-02-14T10:53:42.020Z,18.02
2018-02-14T10:56:09.222Z,19.52
2018-02-14T10:58:35.629Z,18.35
2018-02-14T11:01:02.047Z,17.77
2018-02-14T11:03:35.306Z,21.08
2018-02-14T11:06:07.778Z,20.37
2018-02-14T11:08:34.169Z,17.65
2018-02-14T11:11:00.586Z,21.40
2018-02-14T11:13:27.750Z,25.70
2018-02-14T11:15:54.157Z,20.75
2018-02-14T11:18:21.378Z,19.75
2018-02-14T11:20:47.794Z,18.33
2018-02-14T11:23:14.211Z,18.90
2018-02-14T11:25:40.635Z,20.55
2018-02-14T11:28:07.767Z,20.40
2018-02-14T11:30:34.917Z,49.13
2018-02-14T11:33:02.083Z,23.90
2018-02-14T11:35:29.204Z,52.92
2018-02-14T11:37:55.609Z,23.38
2018-02-14T11:40:22.018Z,40.42
2018-02-14T11:42:48.425Z,23.25
2018-02-14T11:45:15.582Z,55.25
2018-02-14T11:47:42.739Z,32.53
2018-02-14T11:50:09.872Z,19.77
2018-02-14T11:52:37.020Z,19.12
2018-02-14T11:55:03.427Z,19.67
2018-02-14T11:57:29.849Z,15.63
2018-02-14T11:59:56.259Z,20.08
2018-02-14T12:02:22.708Z,19.42
2018-02-14T12:04:49.144Z,16.80
2018-02-14T12:07:15.552Z,19.10
2018-02-14T12:09:41.962Z,16.58
2018-02-14T12:12:08.371Z,20.62
2018-02-14T12:14:34.788Z,23.90
2018-02-14T12:17:01.226Z,23.80
2018-02-14T12:19:27.607Z,20.20
2018-02-14T12:21:54.810Z,21.12
2018-02-14T12:24:21.214Z,20.50
2018-02-14T12:26:47.616Z,20.10
2018-02-14T12:29:14.010Z,20.58
2018-02-14T12:31:40.422Z,19.33
2018-02-14T12:34:06.809Z,21.02
2018-02-14T12:36:33.221Z,18.37
2018-02-14T12:38:59.601Z,23.17
2018-02-14T12:41:26.746Z,21.40
2018-02-14T12:43:53.895Z,22.02
2018-02-14T12:46:21.030Z,23.80
2018-02-14T12:48:47.438Z,20.00
2018-02-14T12:51:13.853Z,19.87
2018-02-14T12:53:40.235Z,21.50
2018-02-14T12:56:06.643Z,20.98
2018-02-14T12:58:33.041Z,20.83
2018-02-14T13:00:59.417Z,20.73
2018-02-14T13:03:25.845Z,23.33
2018-02-14T13:05:52.246Z,24.77
2018-02-14T13:08:18.639Z,21.05
2018-02-14T13:10:45.060Z,23.17
2018-02-14T13:13:11.452Z,24.63
2018-02-14T13:15:37.865Z,21.20
2018-02-14T13:18:05.021Z,20.73
2018-02-14T13:20:31.442Z,19.65
2018-02-14T13:22:58.594Z,21.87
2018-02-14T13:25:25.750Z,23.58
2018-02-14T13:27:52.907Z,26.75
2018-02-14T13:30:20.510Z,24.70
2018-02-14T13:32:46.957Z,22.35
2018-02-14T13:35:13.366Z,23.90
2018-02-14T13:37:39.796Z,23.33
2018-02-14T13:40:06.221Z,25.58
2018-02-14T13:42:32.626Z,28.98
2018-02-14T13:44:59.792Z,24.35
2018-02-14T13:47:26.937Z,22.67
2018-02-14T13:49:54.077Z,29.73
2018-02-14T13:52:20.477Z,27.00
2018-02-14T13:54:46.895Z,27.77
2018-02-14T13:57:13.265Z,24.25
2018-02-14T13:59:39.872Z,26.65
2018-02-14T14:02:06.274Z,21.45
2018-02-14T14:04:32.689Z,28.17
2018-02-14T14:06:59.859Z,25.37
2018-02-14T14:09:26.998Z,28.65
2018-02-14T14:11:54.142Z,28.10
2018-02-14T14:14:21.447Z,23.77
2018-02-14T14:16:47.866Z,30.12
2018-02-14T14:19:14.280Z,29.85
2018-02-14T14:21:41.429Z,29.87
2018-02-14T14:24:08.596Z,29.50
2018-02-14T14:26:35.022Z,29.02
2018-02-14T14:29:02.157Z,31.25
2018-02-14T14:31:29.355Z,31.45
2018-02-14T14:33:55.732Z,25.85
2018-02-14T14:36:22.167Z,28.52
2018-02-14T14:38:49.358Z,31.02
2018-02-14T14:41:15.815Z,31.23
2018-02-14T14:43:42.250Z,28.95
2018-02-14T14:46:08.657Z,32.38
2018-02-14T14:48:35.183Z,33.13
2018-02-14T14:51:02.328Z,29.83
2018-02-14T14:53:29.465Z,31.45
2018-02-14T14:55:56.608Z,32.30
2018-02-14T14:58:23.009Z,35.58
2018-02-14T15:00:49.434Z,28.42
2018-02-14T15:03:15.845Z,35.55
2018-02-14T15:05:42.410Z,34.03
2018-02-14T15:08:08.785Z,32.00
2018-02-14T15:10:35.203Z,29.67
2018-02-14T15:13:01.679Z,38.08
2018-02-14T15:15:28.818Z,38.15
2018-02-14T15:17:55.971Z,38.03
2018-02-14T15:20:23.133Z,34.80
2018-02-14T15:22:50.256Z,36.47
2018-02-14T15:25:16.666Z,32.20
2018-02-14T15:27:43.071Z,35.15
2018-02-14T15:30:10.427Z,37.85
2018-02-14T15:32:36.842Z,37.40
2018-02-14T15:35:04.031Z,37.83
2018-02-14T15:37:30.519Z,41.80
2018-02-14T15:39:57.665Z,40.47
2018-02-14T15:42:24.798Z,39.67
2018-02-14T15:44:51.271Z,38.05
2018-02-14T15:47:18.448Z,40.78
2018-02-14T15:49:44.830Z,40.25
2018-02-14T15:52:11.241Z,41.75
2018-02-14T15:54:37.706Z,42.47
2018-02-14T15:57:04.080Z,39.85
2018-02-14T15:59:30.507Z,40.65
2018-02-14T16:01:56.943Z,38.53
2018-02-14T16:04:23.341Z,40.40
2018-02-14T16:06:49.753Z,43.40
2018-02-14T16:09:16.157Z,41.03
2018-02-14T16:11:42.564Z,39.90
2018-02-14T16:14:16.853Z,40.10
2018-02-14T16:16:43.253Z,42.25
2018-02-14T16:19:09.654Z,41.83
2018-02-14T16:21:36.820Z,40.08
2018-02-14T16:24:03.253Z,41.53
2018-02-14T16:26:29.666Z,38.90
2018-02-14T16:28:56.845Z,42.90
2018-02-14T16:31:23.239Z,42.72
2018-02-14T16:33:49.638Z,45.12
2018-02-14T16:36:16.181Z,49.00
2018-02-14T16:38:42.592Z,55.17
2018-02-14T16:41:09.001Z,63.33
2018-02-14T16:43:35.390Z,53.50
2018-02-14T16:46:01.904Z,52.13
2018-02-14T16:48:28.313Z,51.03
2018-02-14T16:50:54.696Z,46.67
2018-02-14T16:53:21.112Z,49.55
2018-02-14T16:55:47.509Z,56.92
2018-02-14T16:58:13.904Z,47.97
2018-02-14T17:00:40.326Z,46.75
2018-02-14T17:03:06.817Z,48.30
2018-02-14T17:05:33.235Z,50.72
2018-02-14T17:08:00.373Z,50.67
2018-02-14T17:10:27.525Z,50.85
2018-02-14T17:12:53.926Z,50.90
2018-02-14T17:15:20.345Z,53.30
2018-02-14T17:17:46.782Z,51.53
2018-02-14T17:20:13.194Z,55.90
2018-02-14T17:22:39.606Z,57.50
2018-02-14T17:25:06.781Z,60.05
2018-02-14T17:27:33.169Z,53.30
2018-02-14T17:29:59.570Z,54.65
2018-02-14T17:32:26.054Z,55.10
2018-02-14T17:34:53.194Z,58.58
2018-02-14T17:37:19.612Z,59.22
2018-02-14T17:39:46.022Z,53.90
2018-02-14T17:42:12.451Z,58.67
2018-02-14T17:44:38.879Z,52.90
2018-02-14T17:47:05.378Z,57.88
2018-02-14T17:49:34.107Z,58.00
2018-02-14T17:52:02.749Z,59.83
2018-02-14T17:54:31.188Z,55.83
2018-02-14T17:56:59.828Z,58.05
2018-02-14T17:59:29.685Z,56.00
2018-02-14T18:02:00.176Z,55.80
2018-02-14T18:04:26.860Z,59.15
2018-02-14T18:06:56.076Z,58.47
2018-02-14T18:09:22.902Z,58.00
2018-02-14T18:11:49.642Z,59.27
2018-02-14T18:14:17.412Z,61.80
2018-02-14T18:16:44.186Z,63.05
2018-02-14T18:19:11.018Z,61.35
2018-02-14T18:21:38.511Z,63.45
2018-02-14T18:24:05.501Z,64.10
2018-02-14T18:26:32.126Z,62.88
2018-02-14T18:28:58.724Z,60.05
2018-02-14T18:31:26.172Z,57.33
2018-02-14T18:33:54.513Z,61.30
2018-02-14T18:36:20.950Z,58.17
2018-02-14T18:38:48.027Z,59.22
2018-02-14T18:41:14.659Z,62.65
2018-02-14T18:43:42.539Z,64.33
2018-02-14T18:46:09.356Z,67.93
2018-02-14T18:48:35.995Z,63.72
2018-02-14T18:51:02.971Z,63.75
2018-02-14T18:53:29.794Z,67.40
2018-02-14T18:55:56.641Z,66.35
2018-02-14T18:58:23.892Z,62.50
2018-02-14T19:00:50.735Z,63.50
2018-02-14T19:03:17.577Z,65.60
2018-02-14T19:05:44.417Z,66.68
2018-02-14T19:08:11.208Z,69.57
2018-02-14T19:10:38.659Z,73.97
2018-02-14T19:13:05.550Z,67.85
2018-02-14T19:15:32.335Z,71.70
2018-02-14T19:18:00.582Z,71.28
2018-02-14T19:20:27.147Z,72.90
2018-02-14T19:22:53.625Z,71.32
2018-02-14T19:25:20.834Z,71.80
2018-02-14T19:27:47.242Z,66.22
2018-02-14T19:30:13.635Z,66.68
2018-02-14T19:32:43.278Z,82.60
2018-02-14T19:35:11.820Z,77.18
2018-02-14T19:37:38.980Z,68.28
2018-02-14T19:40:08.482Z,73.93
2018-02-14T19:42:36.499Z,79.18
2018-02-14T19:45:05.022Z,75.20
2018-02-14T19:47:35.674Z,66.25
2018-02-14T19:50:05.206Z,89.90
2018-02-14T19:52:34.294Z,81.07
2018-02-14T19:55:03.253Z,76.35
2018-02-14T19:57:32.208Z,78.62
2018-02-14T20:00:00.226Z,79.70
2018-02-14T20:02:32.569Z,89.87
2018-02-14T20:05:00.668Z,68.53
2018-02-14T20:07:31.526Z,74.80
2018-02-14T20:10:00.498Z,74.97
2018-02-14T20:12:29.289Z,74.53
2018-02-14T20:14:58.202Z,76.25
2018-02-14T20:17:25.417Z,73.87
2018-02-14T20:19:51.811Z,77.93
2018-02-14T20:22:18.220Z,86.63
2018-02-14T20:24:45.370Z,82.97
2018-02-14T20:27:12.525Z,77.57
2018-02-14T20:29:39.659Z,80.00
2018-02-14T20:32:06.828Z,80.75
2018-02-14T20:34:34.019Z,82.57
2018-02-14T20:37:01.841Z,86.40
2018-02-14T20:39:29.350Z,82.03
2018-02-14T20:41:58.631Z,86.37
2018-02-14T20:44:25.663Z,79.32
2018-02-14T20:46:59.152Z,84.90
2018-02-14T20:49:32.603Z,77.82
2018-02-14T20:52:00.491Z,78.32
2018-02-14T20:54:31.609Z,82.03
2018-02-14T20:57:03.865Z,83.62
2018-02-14T20:59:35.659Z,81.27
2018-02-14T21:04:34.641Z,62.50
2018-02-14T21:07:03.882Z,75.72
2018-02-14T21:09:32.665Z,82.90
2018-02-14T21:12:01.867Z,89.85
2018-02-14T21:14:30.780Z,85.47
2018-02-14T21:17:05.340Z,87.90
2018-02-14T21:19:31.749Z,78.20
2018-02-14T21:21:58.926Z,76.40
2018-02-14T21:24:25.330Z,73.60
2018-02-14T21:26:52.205Z,76.07
2018-02-14T21:29:18.611Z,77.30
2018-02-14T21:31:45.761Z,78.30
2018-02-14T21:34:12.204Z,75.60
2018-02-14T21:36:39.392Z,78.20
2018-02-14T21:39:05.782Z,71.65
2018-02-14T21:41:32.184Z,75.68
2018-02-14T21:43:58.613Z,77.55
2018-02-14T21:46:25.018Z,72.80
2018-02-14T21:48:51.432Z,75.60
2018-02-14T21:51:18.589Z,77.25
2018-02-14T21:53:45.714Z,80.00
2018-02-14T21:56:12.137Z,77.80
2018-02-14T21:58:38.567Z,76.12
2018-02-14T22:01:04.964Z,74.53
2018-02-14T22:03:31.394Z,69.87
2018-02-14T22:05:57.839Z,68.57
2018-02-14T22:08:24.257Z,67.60
2018-02-14T22:10:50.678Z,70.12
2018-02-14T22:13:17.833Z,66.10
2018-02-14T22:15:45.007Z,71.30
2018-02-14T22:18:11.622Z,69.07
2018-02-14T22:20:38.832Z,69.33
2018-02-14T22:23:05.229Z,62.90
2018-02-14T22:25:31.698Z,66.50
2018-02-14T22:27:58.126Z,66.50
2018-02-14T22:30:24.574Z,61.92
2018-02-14T22:32:51.002Z,65.20
2018-02-14T22:35:17.406Z,63.40
2018-02-14T22:37:43.813Z,63.92
2018-02-14T22:40:10.982Z,61.10
2018-02-14T22:42:37.422Z,59.15
2018-02-14T22:45:03.877Z,68.60
2018-02-14T22:47:30.271Z,65.15
2018-02-14T22:49:57.429Z,71.03
2018-02-14T22:52:24.669Z,67.70
2018-02-14T22:54:51.801Z,65.45
2018-02-14T22:57:18.962Z,62.60
2018-02-14T22:59:45.364Z,62.17
2018-02-14T23:02:11.773Z,64.43
2018-02-14T23:04:38.246Z,61.25
2018-02-14T23:07:04.662Z,65.95
2018-02-14T23:09:31.054Z,60.10
2018-02-14T23:11:58.226Z,58.95
2018-02-14T23:14:24.622Z,54.97
2018-02-14T23:16:51.040Z,53.83
2018-02-14T23:19:17.559Z,57.10
2018-02-14T23:21:43.958Z,56.70
2018-02-14T23:24:10.363Z,55.58
2018-02-14T23:26:37.507Z,56.63
2018-02-14T23:29:04.677Z,56.50
2018-02-14T23:31:31.878Z,52.50
2018-02-14T23:33:58.281Z,54.65
2018-02-14T23:36:24.749Z,52.50
2018-02-14T23:38:51.132Z,54.10
2018-02-14T23:41:18.283Z,51.17
2018-02-14T23:43:45.438Z,52.53
2018-02-14T23:46:12.562Z,54.95
2018-02-14T23:48:39.721Z,55.83
2018-02-14T23:51:06.142Z,52.75
2018-02-14T23:53:32.530Z,53.47
2018-02-14T23:55:58.934Z,51.75
2018-02-14T23:58:26.093Z,51.42
